createdAt,value
2017-11-09T00:00:21.205Z,116.00
2017-11-09T00:01:21.914Z,111.00
2017-11-09T00:02:22.622Z,146.00
2017-11-09T00:03:23.336Z,121.00
2017-11-09T00:04:24.056Z,109.00
2017-11-09T00:05:24.766Z,135.00
2017-11-09T00:06:25.474Z,109.00
2017-11-09T00:07:26.183Z,129.00
2017-11-09T00:08:26.892Z,139.00
2017-11-09T00:09:27.603Z,120.00
2017-11-09T00:10:28.314Z,112.00
2017-11-09T00:11:29.036Z,140.00
2017-11-09T00:12:29.757Z,117.00
2017-11-09T00:13:30.464Z,117.00
2017-11-09T00:14:31.174Z,120.00
2017-11-09T00:15:31.882Z,118.00
2017-11-09T00:16:32.593Z,119.00
2017-11-09T00:17:33.313Z,121.00
2017-11-09T00:18:34.012Z,132.00
2017-11-09T00:19:34.721Z,118.00
2017-11-09T00:20:35.446Z,131.00
2017-11-09T00:21:36.149Z,120.00
2017-11-09T00:22:36.873Z,114.00
2017-11-09T00:23:37.584Z,122.00
2017-11-09T00:24:38.294Z,116.00
2017-11-09T00:25:39.015Z,101.00
2017-11-09T00:26:39.736Z,164.00
2017-11-09T00:27:40.452Z,126.00
2017-11-09T00:28:41.157Z,117.00
2017-11-09T00:29:41.868Z,109.00
2017-11-09T00:30:42.581Z,102.00
2017-11-09T00:31:43.300Z,120.00
2017-11-09T00:32:44.007Z,136.00
2017-11-09T00:33:44.715Z,126.00
2017-11-09T00:34:45.436Z,124.00
2017-11-09T00:35:46.153Z,133.00
2017-11-09T00:36:46.854Z,110.00
2017-11-09T00:37:47.570Z,111.00
2017-11-09T00:38:48.282Z,129.00
2017-11-09T00:39:48.983Z,109.00
2017-11-09T00:40:49.693Z,127.00
2017-11-09T00:41:50.408Z,108.00
2017-11-09T00:42:51.126Z,117.00
2017-11-09T00:43:51.836Z,118.00
2017-11-09T00:44:52.557Z,116.00
2017-11-09T00:45:53.267Z,117.00
2017-11-09T00:46:53.976Z,107.00
2017-11-09T00:47:54.698Z,118.00
2017-11-09T00:48:55.420Z,134.00
2017-11-09T00:49:56.129Z,124.00
2017-11-09T00:50:56.837Z,128.00
2017-11-09T00:51:57.547Z,125.00
2017-11-09T00:52:58.271Z,119.00
2017-11-09T00:53:58.981Z,131.00
2017-11-09T00:54:59.690Z,126.00
2017-11-09T00:56:00.398Z,126.00
2017-11-09T00:57:01.108Z,118.00
2017-11-09T00:58:01.816Z,115.00
2017-11-09T00:59:02.524Z,128.00
2017-11-09T01:00:03.231Z,125.00
2017-11-09T01:01:03.941Z,129.00
2017-11-09T01:02:04.669Z,127.00
2017-11-09T01:03:05.371Z,117.00
2017-11-09T01:04:06.079Z,107.00
2017-11-09T01:05:06.802Z,113.00
2017-11-09T01:06:07.513Z,141.00
2017-11-09T01:07:08.222Z,143.00
2017-11-09T01:08:08.930Z,130.00
2017-11-09T01:09:09.638Z,117.00
2017-11-09T01:10:10.345Z,123.00
2017-11-09T01:11:11.068Z,116.00
2017-11-09T01:12:11.777Z,123.00
2017-11-09T01:13:12.486Z,126.00
2017-11-09T01:14:13.195Z,141.00
2017-11-09T01:15:13.917Z,118.00
2017-11-09T01:16:14.626Z,143.00
2017-11-09T01:17:15.336Z,115.00
2017-11-09T01:18:16.045Z,133.00
2017-11-09T01:19:16.765Z,123.00
2017-11-09T01:20:17.473Z,100.00
2017-11-09T01:21:18.195Z,137.00
2017-11-09T01:22:18.906Z,118.00
2017-11-09T01:23:19.617Z,125.00
2017-11-09T01:24:20.323Z,134.00
2017-11-09T01:25:21.041Z,117.00
2017-11-09T01:26:21.752Z,129.00
2017-11-09T01:27:22.455Z,136.00
2017-11-09T01:28:23.162Z,117.00
2017-11-09T01:29:23.892Z,124.00
2017-11-09T01:30:24.605Z,135.00
2017-11-09T01:31:25.323Z,133.00
2017-11-09T01:32:26.032Z,117.00
2017-11-09T01:33:26.742Z,120.00
2017-11-09T01:34:27.455Z,139.00
2017-11-09T01:35:28.159Z,134.00
2017-11-09T01:36:28.871Z,120.00
2017-11-09T01:37:29.589Z,114.00
2017-11-09T01:38:30.298Z,112.00
2017-11-09T01:39:31.007Z,103.00
2017-11-09T01:40:31.716Z,123.00
2017-11-09T01:41:32.424Z,124.00
2017-11-09T01:42:33.133Z,130.00
2017-11-09T01:43:33.841Z,123.00
2017-11-09T01:44:34.550Z,123.00
2017-11-09T01:45:35.258Z,122.00
2017-11-09T01:46:35.970Z,132.00
2017-11-09T01:47:36.692Z,125.00
2017-11-09T01:48:37.402Z,120.00
2017-11-09T01:49:38.108Z,129.00
2017-11-09T01:50:38.827Z,135.00
2017-11-09T01:51:39.550Z,145.00
2017-11-09T01:52:40.259Z,134.00
2017-11-09T01:53:40.969Z,122.00
2017-11-09T01:55:42.302Z,119.00
2017-11-09T01:56:43.011Z,147.00
2017-11-09T01:57:43.732Z,130.00
2017-11-09T01:58:44.442Z,126.00
2017-11-09T01:59:45.151Z,118.00
2017-11-09T02:00:45.873Z,125.00
2017-11-09T02:01:46.584Z,122.00
2017-11-09T02:02:47.293Z,118.00
2017-11-09T02:03:48.002Z,131.00
2017-11-09T02:04:48.721Z,132.00
2017-11-09T02:05:49.430Z,135.00
2017-11-09T02:06:50.139Z,122.00
2017-11-09T02:07:50.849Z,125.00
2017-11-09T02:08:51.558Z,122.00
2017-11-09T02:09:52.266Z,126.00
2017-11-09T02:10:52.995Z,112.00
2017-11-09T02:11:53.697Z,153.00
2017-11-09T02:12:54.404Z,105.00
2017-11-09T02:13:55.127Z,117.00
2017-11-09T02:14:55.834Z,130.00
2017-11-09T02:15:56.543Z,122.00
2017-11-09T02:16:57.250Z,111.00
2017-11-09T02:17:57.957Z,133.00
2017-11-09T02:18:58.678Z,111.00
2017-11-09T02:19:59.386Z,125.00
2017-11-09T02:21:00.096Z,101.00
2017-11-09T02:22:00.813Z,129.00
2017-11-09T02:23:01.525Z,114.00
2017-11-09T02:24:02.240Z,128.00
2017-11-09T02:25:02.956Z,137.00
2017-11-09T02:26:03.679Z,147.00
2017-11-09T02:27:04.386Z,148.00
2017-11-09T02:28:05.109Z,143.00
2017-11-09T02:29:05.837Z,129.00
2017-11-09T02:30:06.551Z,125.00
2017-11-09T02:31:07.261Z,128.00
2017-11-09T02:32:07.968Z,124.00
2017-11-09T02:33:08.692Z,124.00
2017-11-09T02:34:09.404Z,125.00
2017-11-09T02:35:10.108Z,112.00
2017-11-09T02:36:10.817Z,136.00
2017-11-09T02:37:11.526Z,139.00
2017-11-09T02:38:12.247Z,118.00
2017-11-09T02:39:12.955Z,115.00
2017-11-09T02:40:13.664Z,139.00
2017-11-09T02:41:14.384Z,135.00
2017-11-09T02:42:15.109Z,100.00
2017-11-09T02:43:15.815Z,134.00
2017-11-09T02:44:16.522Z,100.00
2017-11-09T02:45:17.230Z,126.00
2017-11-09T02:46:17.950Z,119.00
2017-11-09T02:47:18.650Z,129.00
2017-11-09T02:48:19.359Z,125.00
2017-11-09T02:49:20.084Z,121.00
2017-11-09T02:50:20.787Z,132.00
2017-11-09T02:51:21.495Z,143.00
2017-11-09T02:52:22.210Z,123.00
2017-11-09T02:53:22.927Z,143.00
2017-11-09T02:54:23.635Z,127.00
2017-11-09T02:55:24.345Z,125.00
2017-11-09T02:56:25.071Z,120.00
2017-11-09T02:57:25.761Z,119.00
2017-11-09T02:58:26.469Z,125.00
2017-11-09T02:59:27.179Z,145.00
2017-11-09T03:00:27.889Z,115.00
2017-11-09T03:01:28.597Z,116.00
2017-11-09T03:02:29.317Z,149.00
2017-11-09T03:03:30.041Z,123.00
2017-11-09T03:04:30.748Z,138.00
2017-11-09T03:05:31.457Z,120.00
2017-11-09T03:06:32.165Z,118.00
2017-11-09T03:07:32.886Z,129.00
2017-11-09T03:08:33.610Z,122.00
2017-11-09T03:09:34.319Z,135.00
2017-11-09T03:10:35.031Z,112.00
2017-11-09T03:11:35.752Z,138.00
2017-11-09T03:12:36.461Z,148.00
2017-11-09T03:13:37.170Z,133.00
2017-11-09T03:14:37.880Z,136.00
2017-11-09T03:15:38.588Z,126.00
2017-11-09T03:16:39.308Z,128.00
2017-11-09T03:17:40.018Z,136.00
2017-11-09T03:18:40.729Z,119.00
2017-11-09T03:19:41.451Z,125.00
2017-11-09T03:20:42.160Z,120.00
2017-11-09T03:21:42.879Z,127.00
2017-11-09T03:22:43.588Z,130.00
2017-11-09T03:23:44.297Z,125.00
2017-11-09T03:24:45.023Z,115.00
2017-11-09T03:25:45.728Z,133.00
2017-11-09T03:26:46.445Z,130.00
2017-11-09T03:27:47.158Z,109.00
2017-11-09T03:28:47.879Z,130.00
2017-11-09T03:29:48.601Z,134.00
2017-11-09T03:30:49.313Z,113.00
2017-11-09T03:31:50.020Z,146.00
2017-11-09T03:32:50.728Z,125.00
2017-11-09T03:33:51.436Z,110.00
2017-11-09T03:34:52.145Z,137.00
2017-11-09T03:35:52.864Z,134.00
2017-11-09T03:36:53.574Z,124.00
2017-11-09T03:37:54.284Z,123.00
2017-11-09T03:38:55.007Z,121.00
2017-11-09T03:39:55.716Z,129.00
2017-11-09T03:40:56.426Z,130.00
2017-11-09T03:41:57.146Z,114.00
2017-11-09T03:42:57.868Z,138.00
2017-11-09T03:43:58.578Z,119.00
2017-11-09T03:44:59.287Z,123.00
2017-11-09T03:46:00.008Z,129.00
2017-11-09T03:47:00.721Z,119.00
2017-11-09T03:48:01.429Z,138.00
2017-11-09T03:49:02.144Z,130.00
2017-11-09T03:50:02.850Z,127.00
2017-11-09T03:51:03.557Z,116.00
2017-11-09T03:52:04.282Z,124.00
2017-11-09T03:53:04.985Z,128.00
2017-11-09T03:54:05.694Z,107.00
2017-11-09T03:55:06.404Z,125.00
2017-11-09T03:56:07.121Z,111.00
2017-11-09T03:57:07.830Z,101.00
2017-11-09T03:58:08.549Z,132.00
2017-11-09T03:59:09.262Z,128.00
2017-11-09T04:00:09.980Z,151.00
2017-11-09T04:01:10.702Z,137.00
2017-11-09T04:02:11.409Z,93.00
2017-11-09T04:03:12.119Z,120.00
2017-11-09T04:04:12.829Z,117.00
2017-11-09T04:05:13.536Z,117.00
2017-11-09T04:06:14.249Z,127.00
2017-11-09T04:07:14.972Z,127.00
2017-11-09T04:08:15.677Z,128.00
2017-11-09T04:09:16.385Z,117.00
2017-11-09T04:10:17.102Z,127.00
2017-11-09T04:11:17.812Z,139.00
2017-11-09T04:12:18.524Z,109.00
2017-11-09T04:13:19.232Z,142.00
2017-11-09T04:14:19.944Z,127.00
2017-11-09T04:15:20.652Z,133.00
2017-11-09T04:16:21.359Z,134.00
2017-11-09T04:17:22.066Z,121.00
2017-11-09T04:18:22.774Z,123.00
2017-11-09T04:19:23.483Z,127.00
2017-11-09T04:20:24.199Z,124.00
2017-11-09T04:21:24.911Z,122.00
2017-11-09T04:22:25.635Z,125.00
2017-11-09T04:23:26.345Z,142.00
2017-11-09T04:24:27.065Z,146.00
2017-11-09T04:25:27.775Z,141.00
2017-11-09T04:26:28.483Z,138.00
2017-11-09T04:27:29.192Z,140.00
2017-11-09T04:28:29.900Z,143.00
2017-11-09T04:29:30.609Z,132.00
2017-11-09T04:30:31.318Z,130.00
2017-11-09T04:31:32.026Z,141.00
2017-11-09T04:32:32.747Z,137.00
2017-11-09T04:33:33.459Z,142.00
2017-11-09T04:34:34.169Z,137.00
2017-11-09T04:35:34.876Z,148.00
2017-11-09T04:36:35.589Z,148.00
2017-11-09T04:37:36.312Z,140.00
2017-11-09T04:38:37.014Z,124.00
2017-11-09T04:39:37.724Z,148.00
2017-11-09T04:40:38.447Z,121.00
2017-11-09T04:41:39.156Z,140.00
2017-11-09T04:42:39.867Z,130.00
2017-11-09T04:43:40.575Z,150.00
2017-11-09T04:44:41.284Z,126.00
2017-11-09T04:45:42.004Z,131.00
2017-11-09T04:46:42.715Z,143.00
2017-11-09T04:47:43.424Z,141.00
2017-11-09T04:48:44.140Z,138.00
2017-11-09T04:49:44.843Z,129.00
2017-11-09T04:50:45.551Z,131.00
2017-11-09T04:51:46.258Z,142.00
2017-11-09T04:52:46.968Z,141.00
2017-11-09T04:53:47.676Z,139.00
2017-11-09T04:54:48.384Z,158.00
2017-11-09T04:55:49.094Z,151.00
2017-11-09T04:56:49.816Z,135.00
2017-11-09T04:57:50.529Z,151.00
2017-11-09T04:58:51.234Z,139.00
2017-11-09T04:59:51.941Z,124.00
2017-11-09T05:00:52.649Z,143.00
2017-11-09T05:01:53.356Z,150.00
2017-11-09T05:02:54.071Z,165.00
2017-11-09T05:03:54.776Z,126.00
2017-11-09T05:04:55.493Z,145.00
2017-11-09T05:05:56.194Z,134.00
2017-11-09T05:06:56.905Z,127.00
2017-11-09T05:07:57.611Z,129.00
2017-11-09T05:08:58.324Z,138.00
2017-11-09T05:09:59.027Z,130.00
2017-11-09T05:10:59.740Z,129.00
2017-11-09T05:12:00.462Z,150.00
2017-11-09T05:13:01.168Z,143.00
2017-11-09T05:14:01.877Z,134.00
2017-11-09T05:15:02.585Z,155.00
2017-11-09T05:16:03.293Z,144.00
2017-11-09T05:17:04.002Z,169.00
2017-11-09T05:18:04.710Z,150.00
2017-11-09T05:19:05.419Z,137.00
2017-11-09T05:20:06.125Z,153.00
2017-11-09T05:21:06.834Z,131.00
2017-11-09T05:22:07.541Z,160.00
2017-11-09T05:23:08.249Z,146.00
2017-11-09T05:24:08.957Z,152.00
2017-11-09T05:25:09.676Z,157.00
2017-11-09T05:26:10.383Z,129.00
2017-11-09T05:27:11.090Z,132.00
2017-11-09T05:28:11.799Z,151.00
2017-11-09T05:29:12.505Z,131.00
2017-11-09T05:30:13.216Z,144.00
2017-11-09T05:31:13.935Z,127.00
2017-11-09T05:32:14.657Z,136.00
2017-11-09T05:33:15.369Z,148.00
2017-11-09T05:34:16.077Z,146.00
2017-11-09T05:35:16.796Z,143.00
2017-11-09T05:36:17.504Z,147.00
2017-11-09T05:37:18.211Z,144.00
2017-11-09T05:38:18.920Z,137.00
2017-11-09T05:39:19.640Z,142.00
2017-11-09T05:40:20.346Z,135.00
2017-11-09T05:41:21.056Z,126.00
2017-11-09T05:42:21.775Z,129.00
2017-11-09T05:43:22.482Z,127.00
2017-11-09T05:44:23.191Z,146.00
2017-11-09T05:45:23.899Z,122.00
2017-11-09T05:46:24.608Z,132.00
2017-11-09T05:47:25.318Z,125.00
2017-11-09T05:48:26.024Z,143.00
2017-11-09T05:49:26.732Z,142.00
2017-11-09T05:50:27.456Z,117.00
2017-11-09T05:51:28.164Z,113.00
2017-11-09T05:52:28.874Z,128.00
2017-11-09T05:53:29.593Z,121.00
2017-11-09T05:54:30.301Z,142.00
2017-11-09T05:55:31.021Z,138.00
2017-11-09T05:56:31.730Z,142.00
2017-11-09T05:57:32.452Z,141.00
2017-11-09T05:58:33.169Z,118.00
2017-11-09T05:59:33.870Z,113.00
2017-11-09T06:00:34.573Z,126.00
2017-11-09T06:01:35.282Z,146.00
2017-11-09T06:02:35.991Z,111.00
2017-11-09T06:03:36.711Z,128.00
2017-11-09T06:04:37.434Z,128.00
2017-11-09T06:05:38.155Z,136.00
2017-11-09T06:06:38.875Z,139.00
2017-11-09T06:07:39.572Z,131.00
2017-11-09T06:08:40.289Z,133.00
2017-11-09T06:09:40.997Z,127.00
2017-11-09T06:10:41.706Z,145.00
2017-11-09T06:11:42.416Z,130.00
2017-11-09T06:12:43.123Z,109.00
2017-11-09T06:13:43.830Z,118.00
2017-11-09T06:14:44.538Z,129.00
2017-11-09T06:15:45.247Z,123.00
2017-11-09T06:16:45.956Z,116.00
2017-11-09T06:17:46.667Z,155.00
2017-11-09T06:18:47.388Z,129.00
2017-11-09T06:19:48.095Z,132.00
2017-11-09T06:20:48.802Z,133.00
2017-11-09T06:21:49.511Z,119.00
2017-11-09T06:22:50.219Z,140.00
2017-11-09T06:23:50.927Z,140.00
2017-11-09T06:24:51.650Z,132.00
2017-11-09T06:25:52.359Z,142.00
2017-11-09T06:26:53.069Z,129.00
2017-11-09T06:27:53.779Z,145.00
2017-11-09T06:28:54.488Z,131.00
2017-11-09T06:29:55.209Z,141.00
2017-11-09T06:30:55.918Z,148.00
2017-11-09T06:31:56.649Z,119.00
2017-11-09T06:32:57.336Z,135.00
2017-11-09T06:33:58.047Z,120.00
2017-11-09T06:34:58.758Z,149.00
2017-11-09T06:35:59.470Z,142.00
2017-11-09T06:37:00.192Z,150.00
2017-11-09T06:38:00.902Z,130.00
2017-11-09T06:39:01.622Z,140.00
2017-11-09T06:40:02.331Z,149.00
2017-11-09T06:41:03.039Z,139.00
2017-11-09T06:42:03.749Z,125.00
2017-11-09T06:43:04.460Z,145.00
2017-11-09T06:44:05.180Z,138.00
2017-11-09T06:45:05.889Z,120.00
2017-11-09T06:46:06.617Z,119.00
2017-11-09T06:47:07.326Z,125.00
2017-11-09T06:48:08.035Z,141.00
2017-11-09T06:49:08.747Z,143.00
2017-11-09T06:50:09.457Z,104.00
2017-11-09T06:51:10.170Z,133.00
2017-11-09T06:52:10.876Z,146.00
2017-11-09T06:53:11.586Z,151.00
2017-11-09T06:54:12.296Z,129.00
2017-11-09T06:55:13.006Z,114.00
2017-11-09T06:56:13.719Z,106.00
2017-11-09T06:57:14.430Z,110.00
2017-11-09T06:58:15.139Z,136.00
2017-11-09T06:59:15.852Z,143.00
2017-11-09T07:00:16.562Z,125.00
2017-11-09T07:01:17.287Z,126.00
2017-11-09T07:02:17.996Z,125.00
2017-11-09T07:03:18.708Z,128.00
2017-11-09T07:04:19.430Z,132.00
2017-11-09T07:05:20.142Z,134.00
2017-11-09T07:06:20.856Z,128.00
2017-11-09T07:07:21.565Z,127.00
2017-11-09T07:08:22.279Z,131.00
2017-11-09T07:09:22.985Z,128.00
2017-11-09T07:10:23.694Z,122.00
2017-11-09T07:11:24.407Z,131.00
2017-11-09T07:12:25.133Z,204.00
2017-11-09T07:13:25.854Z,163.00
2017-11-09T07:14:26.566Z,145.00
2017-11-09T07:15:27.280Z,164.00
2017-11-09T07:16:27.990Z,145.00
2017-11-09T07:17:28.701Z,117.00
2017-11-09T07:18:29.416Z,120.00
2017-11-09T07:19:30.125Z,138.00
2017-11-09T07:20:30.847Z,114.00
2017-11-09T07:21:31.558Z,115.00
2017-11-09T07:22:32.269Z,122.00
2017-11-09T07:23:32.994Z,142.00
2017-11-09T07:24:33.706Z,116.00
2017-11-09T07:25:34.417Z,140.00
2017-11-09T07:26:35.129Z,116.00
2017-11-09T07:27:35.841Z,133.00
2017-11-09T07:28:36.554Z,145.00
2017-11-09T07:29:37.264Z,204.00
2017-11-09T07:30:37.975Z,168.00
2017-11-09T07:31:38.687Z,165.00
2017-11-09T07:32:39.400Z,140.00
2017-11-09T07:33:40.115Z,119.00
2017-11-09T07:34:40.823Z,129.00
2017-11-09T07:35:41.539Z,122.00
2017-11-09T07:36:42.248Z,128.00
2017-11-09T07:37:42.960Z,145.00
2017-11-09T07:38:43.685Z,135.00
2017-11-09T07:39:44.385Z,127.00
2017-11-09T07:40:45.102Z,121.00
2017-11-09T07:41:45.807Z,129.00
2017-11-09T07:42:46.520Z,117.00
2017-11-09T07:43:47.232Z,128.00
2017-11-09T07:44:47.945Z,133.00
2017-11-09T07:45:48.672Z,130.00
2017-11-09T07:46:49.385Z,129.00
2017-11-09T07:47:50.103Z,123.00
2017-11-09T07:48:50.810Z,144.00
2017-11-09T07:49:51.524Z,131.00
2017-11-09T07:50:52.238Z,129.00
2017-11-09T07:51:52.963Z,146.00
2017-11-09T07:52:53.674Z,112.00
2017-11-09T07:53:54.398Z,110.00
2017-11-09T07:54:55.111Z,119.00
2017-11-09T07:55:55.828Z,139.00
2017-11-09T07:56:56.551Z,137.00
2017-11-09T07:57:57.277Z,117.00
2017-11-09T07:58:58.004Z,134.00
2017-11-09T07:59:58.715Z,118.00
2017-11-09T08:00:59.436Z,113.00
2017-11-09T08:02:00.142Z,128.00
2017-11-09T08:03:00.868Z,130.00
2017-11-09T08:04:01.580Z,126.00
2017-11-09T08:05:02.294Z,131.00
2017-11-09T08:06:03.008Z,116.00
2017-11-09T08:07:03.722Z,146.00
2017-11-09T08:08:04.437Z,124.00
2017-11-09T08:09:05.161Z,133.00
2017-11-09T08:10:05.873Z,127.00
2017-11-09T08:11:06.584Z,121.00
2017-11-09T08:12:07.299Z,128.00
2017-11-09T08:13:08.013Z,134.00
2017-11-09T08:14:08.726Z,112.00
2017-11-09T08:15:09.439Z,118.00
2017-11-09T08:16:10.152Z,118.00
2017-11-09T08:17:10.876Z,123.00
2017-11-09T08:18:11.591Z,128.00
2017-11-09T08:19:12.306Z,138.00
2017-11-09T08:20:13.030Z,119.00
2017-11-09T08:21:13.745Z,124.00
2017-11-09T08:22:14.469Z,132.00
2017-11-09T08:23:15.182Z,118.00
2017-11-09T08:24:15.908Z,123.00
2017-11-09T08:25:16.622Z,131.00
2017-11-09T08:26:17.336Z,115.00
2017-11-09T08:27:18.048Z,115.00
2017-11-09T08:28:18.764Z,105.00
2017-11-09T08:29:19.503Z,122.00
2017-11-09T08:30:20.200Z,126.00
2017-11-09T08:31:20.913Z,115.00
2017-11-09T08:32:21.623Z,104.00
2017-11-09T08:33:22.333Z,122.00
2017-11-09T08:34:23.044Z,115.00
2017-11-09T08:35:23.758Z,133.00
2017-11-09T08:36:24.471Z,131.00
2017-11-09T08:37:25.185Z,101.00
2017-11-09T08:38:25.897Z,134.00
2017-11-09T08:39:26.629Z,131.00
2017-11-09T08:40:27.347Z,138.00
2017-11-09T08:41:28.061Z,113.00
2017-11-09T08:42:28.776Z,115.00
2017-11-09T08:43:29.498Z,108.00
2017-11-09T08:44:30.212Z,121.00
2017-11-09T08:45:30.932Z,120.00
2017-11-09T08:46:31.638Z,122.00
2017-11-09T08:47:32.362Z,105.00
2017-11-09T08:48:33.087Z,135.00
2017-11-09T08:49:33.806Z,99.00
2017-11-09T08:50:34.516Z,124.00
2017-11-09T08:51:35.228Z,126.00
2017-11-09T08:52:35.942Z,117.00
2017-11-09T08:53:36.655Z,111.00
2017-11-09T08:54:37.371Z,123.00
2017-11-09T08:55:38.082Z,109.00
2017-11-09T08:56:38.809Z,110.00
2017-11-09T08:57:39.512Z,107.00
2017-11-09T08:58:40.226Z,112.00
2017-11-09T08:59:40.941Z,108.00
2017-11-09T09:00:41.654Z,109.00
2017-11-09T09:01:42.382Z,119.00
2017-11-09T09:02:43.097Z,104.00
2017-11-09T09:03:43.810Z,86.00
2017-11-09T09:04:44.526Z,106.00
2017-11-09T09:05:45.252Z,103.00
2017-11-09T09:06:45.967Z,105.00
2017-11-09T09:07:46.680Z,124.00
2017-11-09T09:08:47.407Z,99.00
2017-11-09T09:09:48.121Z,110.00
2017-11-09T09:10:48.848Z,101.00
2017-11-09T09:11:49.562Z,101.00
2017-11-09T09:12:50.276Z,100.00
2017-11-09T09:13:50.990Z,97.00
2017-11-09T09:14:51.707Z,126.00
2017-11-09T09:15:52.422Z,94.00
2017-11-09T09:16:53.149Z,107.00
2017-11-09T09:17:53.867Z,114.00
2017-11-09T09:18:54.592Z,102.00
2017-11-09T09:19:55.308Z,105.00
2017-11-09T09:20:56.025Z,76.00
2017-11-09T09:21:56.740Z,98.00
2017-11-09T09:22:57.457Z,104.00
2017-11-09T09:23:58.173Z,81.00
2017-11-09T09:24:58.887Z,79.00
2017-11-09T09:25:59.602Z,111.00
2017-11-09T09:27:00.321Z,87.00
2017-11-09T09:28:01.049Z,100.00
2017-11-09T09:29:01.764Z,89.00
2017-11-09T09:30:02.493Z,88.00
2017-11-09T09:31:03.222Z,105.00
2017-11-09T09:32:03.935Z,83.00
2017-11-09T09:33:04.658Z,122.00
2017-11-09T09:34:05.368Z,103.00
2017-11-09T09:35:06.091Z,106.00
2017-11-09T09:36:06.813Z,100.00
2017-11-09T09:37:07.529Z,86.00
2017-11-09T09:38:08.248Z,100.00
2017-11-09T09:39:08.962Z,98.00
2017-11-09T09:40:09.692Z,114.00
2017-11-09T09:41:10.409Z,93.00
2017-11-09T09:42:11.126Z,89.00
2017-11-09T09:43:11.843Z,99.00
2017-11-09T09:44:12.574Z,82.00
2017-11-09T09:45:13.294Z,63.00
2017-11-09T09:46:14.022Z,89.00
2017-11-09T09:47:14.741Z,98.00
2017-11-09T09:48:15.457Z,87.00
2017-11-09T09:49:16.177Z,95.00
2017-11-09T09:50:16.893Z,89.00
2017-11-09T09:51:17.624Z,106.00
2017-11-09T09:52:18.356Z,86.00
2017-11-09T09:53:19.058Z,92.00
2017-11-09T09:54:19.774Z,81.00
2017-11-09T09:55:20.502Z,87.00
2017-11-09T09:56:21.220Z,122.00
2017-11-09T09:57:21.936Z,80.00
2017-11-09T09:58:22.658Z,92.00
2017-11-09T09:59:23.367Z,105.00
2017-11-09T10:00:24.100Z,89.00
2017-11-09T10:01:24.816Z,100.00
2017-11-09T10:02:25.532Z,95.00
2017-11-09T10:03:26.247Z,104.00
2017-11-09T10:04:26.975Z,78.00
2017-11-09T10:05:27.689Z,98.00
2017-11-09T10:06:28.404Z,118.00
2017-11-09T10:07:29.121Z,81.00
2017-11-09T10:08:29.834Z,92.00
2017-11-09T10:09:30.556Z,92.00
2017-11-09T10:10:31.259Z,104.00
2017-11-09T10:11:31.977Z,112.00
2017-11-09T10:12:32.691Z,68.00
2017-11-09T10:13:33.404Z,98.00
2017-11-09T10:14:34.116Z,73.00
2017-11-09T10:15:34.833Z,107.00
2017-11-09T10:16:35.547Z,122.00
2017-11-09T10:17:36.261Z,96.00
2017-11-09T10:18:36.976Z,97.00
2017-11-09T10:19:37.691Z,105.00
2017-11-09T10:20:38.404Z,96.00
2017-11-09T10:21:39.130Z,91.00
2017-11-09T10:22:39.843Z,74.00
2017-11-09T10:23:40.578Z,117.00
2017-11-09T10:24:41.287Z,103.00
2017-11-09T10:25:42.002Z,103.00
2017-11-09T10:26:42.717Z,95.00
2017-11-09T10:27:43.445Z,107.00
2017-11-09T10:28:44.159Z,102.00
2017-11-09T10:29:44.876Z,110.00
2017-11-09T10:30:45.592Z,100.00
2017-11-09T10:31:46.306Z,65.00
2017-11-09T10:32:47.022Z,93.00
2017-11-09T10:33:47.742Z,63.00
2017-11-09T10:34:48.454Z,115.00
2017-11-09T10:35:49.169Z,93.00
2017-11-09T10:36:49.898Z,90.00
2017-11-09T10:37:50.613Z,84.00
2017-11-09T10:38:51.341Z,81.00
2017-11-09T10:39:52.057Z,117.00
2017-11-09T10:40:52.776Z,100.00
2017-11-09T10:41:53.490Z,96.00
2017-11-09T10:42:54.209Z,87.00
2017-11-09T10:43:54.923Z,103.00
2017-11-09T10:44:55.640Z,117.00
2017-11-09T10:45:56.357Z,96.00
2017-11-09T10:46:57.079Z,106.00
2017-11-09T10:47:57.807Z,98.00
2017-11-09T10:48:58.525Z,89.00
2017-11-09T10:49:59.239Z,115.00
2017-11-09T10:50:59.956Z,90.00
2017-11-09T10:52:00.679Z,95.00
2017-11-09T10:53:01.388Z,92.00
2017-11-09T10:54:02.101Z,82.00
2017-11-09T10:55:02.816Z,98.00
2017-11-09T10:56:03.548Z,103.00
2017-11-09T10:57:04.263Z,98.00
2017-11-09T10:58:04.982Z,110.00
2017-11-09T10:59:05.716Z,117.00
2017-11-09T11:00:06.439Z,108.00
2017-11-09T11:01:07.154Z,70.00
2017-11-09T11:02:07.873Z,90.00
2017-11-09T11:03:08.584Z,80.00
2017-11-09T11:04:09.300Z,97.00
2017-11-09T11:05:10.026Z,100.00
2017-11-09T11:06:10.742Z,82.00
2017-11-09T11:07:11.455Z,94.00
2017-11-09T11:08:12.184Z,86.00
2017-11-09T11:09:12.887Z,74.00
2017-11-09T11:10:13.602Z,103.00
2017-11-09T11:11:14.317Z,97.00
2017-11-09T11:12:15.032Z,90.00
2017-11-09T11:13:15.747Z,109.00
2017-11-09T11:14:16.461Z,94.00
2017-11-09T11:15:17.174Z,82.00
2017-11-09T11:16:17.886Z,90.00
2017-11-09T11:17:18.607Z,91.00
2017-11-09T11:18:19.317Z,74.00
2017-11-09T11:19:20.032Z,97.00
2017-11-09T11:20:20.746Z,97.00
2017-11-09T11:21:21.460Z,81.00
2017-11-09T11:22:22.175Z,94.00
2017-11-09T11:23:22.889Z,51.00
2017-11-09T11:24:23.605Z,70.00
2017-11-09T11:25:24.334Z,78.00
2017-11-09T11:26:25.048Z,60.00
2017-11-09T11:27:25.762Z,89.00
2017-11-09T11:28:26.473Z,74.00
2017-11-09T11:29:27.187Z,101.00
2017-11-09T11:30:27.909Z,84.00
2017-11-09T11:31:28.624Z,103.00
2017-11-09T11:32:29.336Z,97.00
2017-11-09T11:33:30.061Z,102.00
2017-11-09T11:34:30.777Z,99.00
2017-11-09T11:35:31.488Z,86.00
2017-11-09T11:36:32.202Z,118.00
2017-11-09T11:37:32.915Z,103.00
2017-11-09T11:38:33.639Z,98.00
2017-11-09T11:39:34.340Z,78.00
2017-11-09T11:40:35.054Z,112.00
2017-11-09T11:41:35.777Z,112.00
2017-11-09T11:42:36.492Z,121.00
2017-11-09T11:43:37.209Z,99.00
2017-11-09T11:44:37.918Z,92.00
2017-11-09T11:45:38.631Z,91.00
2017-11-09T11:46:39.367Z,100.00
2017-11-09T11:47:40.072Z,81.00
2017-11-09T11:48:40.786Z,96.00
2017-11-09T11:49:41.500Z,96.00
2017-11-09T11:50:42.216Z,101.00
2017-11-09T11:51:42.933Z,79.00
2017-11-09T11:52:43.657Z,102.00
2017-11-09T11:53:44.383Z,76.00
2017-11-09T11:54:45.107Z,70.00
2017-11-09T11:55:45.839Z,63.00
2017-11-09T11:56:46.546Z,90.00
2017-11-09T11:57:47.258Z,84.00
2017-11-09T11:58:47.971Z,104.00
2017-11-09T11:59:48.685Z,77.00
2017-11-09T12:00:49.412Z,108.00
2017-11-09T12:01:50.127Z,100.00
2017-11-09T12:02:50.841Z,69.00
2017-11-09T12:03:51.553Z,89.00
2017-11-09T12:04:52.266Z,102.00
2017-11-09T12:05:52.990Z,76.00
2017-11-09T12:06:53.703Z,81.00
2017-11-09T12:07:54.416Z,87.00
2017-11-09T12:08:55.128Z,86.00
2017-11-09T12:09:55.840Z,114.00
2017-11-09T12:10:56.552Z,86.00
2017-11-09T12:11:57.264Z,88.00
2017-11-09T12:12:57.982Z,80.00
2017-11-09T12:13:58.690Z,83.00
2017-11-09T12:14:59.405Z,91.00
2017-11-09T12:16:00.120Z,74.00
2017-11-09T12:17:00.851Z,65.00
2017-11-09T12:18:01.558Z,64.00
2017-11-09T12:19:02.271Z,70.00
2017-11-09T12:20:02.982Z,80.00
2017-11-09T12:21:03.695Z,66.00
2017-11-09T12:22:04.407Z,96.00
2017-11-09T12:23:05.120Z,92.00
2017-11-09T12:24:05.837Z,104.00
2017-11-09T12:25:06.546Z,69.00
2017-11-09T12:26:07.263Z,99.00
2017-11-09T12:27:07.971Z,97.00
2017-11-09T12:28:08.691Z,97.00
2017-11-09T12:29:09.409Z,67.00
2017-11-09T12:30:10.127Z,92.00
2017-11-09T12:31:10.834Z,93.00
2017-11-09T12:32:11.559Z,95.00
2017-11-09T12:33:12.272Z,89.00
2017-11-09T12:34:12.990Z,103.00
2017-11-09T12:35:13.702Z,97.00
2017-11-09T12:36:14.428Z,92.00
2017-11-09T12:37:15.148Z,113.00
2017-11-09T12:38:15.856Z,91.00
2017-11-09T12:39:16.570Z,104.00
2017-11-09T12:40:17.283Z,89.00
2017-11-09T12:41:18.009Z,83.00
2017-11-09T12:42:18.722Z,93.00
2017-11-09T12:43:19.434Z,101.00